Time;durP1;ratioP1;P1;durP2;ratioP2;P2;SDS_P1;SDS_P2;PMS_P1;PMS_P2;Temp;Humidity;BMP_temperature;BMP_pressure;BME280_temperature;BME280_humidity;BME280_pressure;Samples;Min_cycle;Max_cycle;Signal;HPM_P1;HPM_P2
2023/02/16 00:00:32;;;;;;;34.20;21.13;;;;;;;;;;10025942;28;20411;-60
2023/02/16 00:05:29;;;;;;;38.38;24.15;;;;;;;;;;10025451;28;20061;-60
2023/02/16 00:10:24;;;;;;;38.08;24.13;;;;;;;;;;10025627;28;20553;-61
2023/02/16 00:15:21;;;;;;;40.72;22.15;;;;;;;;;;10025406;28;20483;-60
2023/02/16 00:20:17;;;;;;;36.17;22.45;;;;;;;;;;10019334;28;20069;-61
2023/02/16 00:25:10;;;;;;;38.97;24.10;;;;;;;;;;10025383;28;20567;-60
2023/02/16 00:30:14;;;;;;;34.63;23.63;;;;;;;;;;10025660;28;20048;-60
2023/02/16 00:35:33;;;;;;;40.47;23.15;;;;;;;;;;10007860;28;20080;-61
2023/02/16 00:40:27;;;;;;;33.75;23.88;;;;;;;;;;10024232;28;20058;-60
2023/02/16 00:45:21;;;;;;;41.03;25.23;;;;;;;;;;10032900;28;20071;-60
2023/02/16 00:50:26;;;;;;;42.90;26.23;;;;;;;;;;10030724;28;20112;-60
2023/02/16 00:55:20;;;;;;;43.90;25.70;;;;;;;;;;10025101;28;20050;-60
2023/02/16 01:00:16;;;;;;;41.75;26.42;;;;;;;;;;10021746;28;20050;-60
2023/02/16 01:05:11;;;;;;;39.75;22.92;;;;;;;;;;10019388;28;20058;-60
2023/02/16 01:15:35;;;;;;;29.70;20.08;;;;;;;;;;9981315;28;20045;-61
2023/02/16 01:20:28;;;;;;;26.17;18.10;;;;;;;;;;10013732;28;20498;-60
2023/02/16 01:25:21;;;;;;;22.95;15.05;;;;;;;;;;10030001;28;20096;-60
2023/02/16 01:30:20;;;;;;;34.17;20.33;;;;;;;;;;10029369;28;20144;-60
2023/02/16 01:35:13;;;;;;;32.03;19.35;;;;;;;;;;10029377;28;20150;-60
2023/02/16 01:40:28;;;;;;;27.85;19.27;;;;;;;;;;10029098;28;20038;-60
2023/02/16 01:45:29;;;;;;;23.10;17.58;;;;;;;;;;10022833;28;20052;-60
2023/02/16 01:50:25;;;;;;;20.38;12.95;;;;;;;;;;10028289;28;20402;-60
2023/02/16 01:55:29;;;;;;;20.77;12.85;;;;;;;;;;10027970;28;20521;-60
2023/02/16 02:00:52;;;;;;;22.90;14.32;;;;;;;;;;10010812;28;20052;-60
2023/02/16 02:05:47;;;;;;;26.33;15.80;;;;;;;;;;10028878;28;20054;-60
2023/02/16 02:10:46;;;;;;;25.05;16.40;;;;;;;;;;10011760;28;20038;-60
2023/02/16 02:15:39;;;;;;;31.83;18.17;;;;;;;;;;10028574;28;20048;-60
2023/02/16 02:26:47;;;;;;;30.83;18.38;;;;;;;;;;10018574;28;20054;-60
2023/02/16 02:31:49;;;;;;;19.02;13.45;;;;;;;;;;10014251;28;20414;-60
2023/02/16 02:37:07;;;;;;;20.38;13.52;;;;;;;;;;10021452;28;20042;-60
2023/02/16 02:42:13;;;;;;;22.80;13.65;;;;;;;;;;10024613;28;20077;-60
2023/02/16 02:47:14;;;;;;;18.40;12.20;;;;;;;;;;10025912;28;20049;-59
2023/02/16 02:52:07;;;;;;;26.08;14.13;;;;;;;;;;10028550;28;20541;-59
2023/02/16 03:02:23;;;;;;;21.60;15.75;;;;;;;;;;10016961;28;20140;-59
2023/02/16 03:07:16;;;;;;;25.35;15.20;;;;;;;;;;10025780;28;20145;-60
2023/02/16 03:33:05;;;;;;;23.20;15.55;;;;;;;;;;10026750;28;20050;-60
2023/02/16 03:37:59;;;;;;;31.90;16.88;;;;;;;;;;10026705;28;20457;-60
2023/02/16 03:42:52;;;;;;;22.00;15.13;;;;;;;;;;10024381;28;20045;-59
2023/02/16 03:47:45;;;;;;;28.08;16.67;;;;;;;;;;10026166;28;20046;-59
2023/02/16 03:52:39;;;;;;;23.98;15.45;;;;;;;;;;10026718;28;20487;-59
2023/02/16 03:57:33;;;;;;;28.15;18.27;;;;;;;;;;10025635;28;20046;-59
2023/02/16 04:02:28;;;;;;;35.35;20.40;;;;;;;;;;10025984;28;20806;-59
2023/02/16 04:07:22;;;;;;;32.45;19.23;;;;;;;;;;10016989;28;20493;-59
2023/02/16 04:17:26;;;;;;;29.10;16.17;;;;;;;;;;10033724;28;20499;-60
2023/02/16 04:22:20;;;;;;;26.45;17.40;;;;;;;;;;10032500;28;20064;-60
2023/02/16 04:27:14;;;;;;;26.42;17.88;;;;;;;;;;10028347;28;20053;-59
2023/02/16 04:32:08;;;;;;;29.65;17.73;;;;;;;;;;10017201;28;20730;-60
2023/02/16 04:37:02;;;;;;;28.15;18.35;;;;;;;;;;10013983;28;20073;-59
2023/02/16 04:41:55;;;;;;;25.50;16.60;;;;;;;;;;10010782;28;20047;-60
2023/02/16 04:46:49;;;;;;;28.67;18.83;;;;;;;;;;10022111;28;20555;-60
2023/02/16 04:51:42;;;;;;;26.02;17.42;;;;;;;;;;10021814;28;20581;-59
2023/02/16 04:56:36;;;;;;;18.55;13.80;;;;;;;;;;10015713;28;20569;-59
2023/02/16 05:01:30;;;;;;;16.15;11.88;;;;;;;;;;10030811;28;20069;-59
2023/02/16 05:06:24;;;;;;;18.35;11.18;;;;;;;;;;10031855;28;20077;-59
2023/02/16 05:16:29;;;;;;;17.88;10.10;;;;;;;;;;10030735;28;20175;-60
2023/02/16 05:21:30;;;;;;;13.63;9.52;;;;;;;;;;10028262;28;20068;-59
2023/02/16 05:26:24;;;;;;;18.25;9.77;;;;;;;;;;10029964;28;20056;-59
2023/02/16 05:31:18;;;;;;;23.27;13.18;;;;;;;;;;10015935;28;20052;-59
2023/02/16 05:36:12;;;;;;;18.98;9.60;;;;;;;;;;10006977;28;20447;-61
2023/02/16 05:41:06;;;;;;;14.98;8.38;;;;;;;;;;10006437;28;20108;-58
2023/02/16 05:46:07;;;;;;;13.07;8.50;;;;;;;;;;10020350;28;20518;-58
2023/02/16 05:51:01;;;;;;;13.60;8.55;;;;;;;;;;10019227;28;20518;-58
2023/02/16 05:55:55;;;;;;;13.30;9.25;;;;;;;;;;10029086;28;20104;-59
2023/02/16 06:00:49;;;;;;;14.77;9.70;;;;;;;;;;10014045;28;20054;-58
2023/02/16 06:05:43;;;;;;;14.98;10.60;;;;;;;;;;10010334;28;20491;-62
2023/02/16 06:10:36;;;;;;;19.05;10.05;;;;;;;;;;10021260;28;20550;-58
2023/02/16 06:15:29;;;;;;;16.42;10.98;;;;;;;;;;10022929;28;20136;-59
2023/02/16 06:20:23;;;;;;;13.65;9.82;;;;;;;;;;10023999;28;20530;-59
2023/02/16 06:25:19;;;;;;;20.17;11.27;;;;;;;;;;10008431;28;20044;-59
2023/02/16 06:30:12;;;;;;;20.45;12.93;;;;;;;;;;10027540;28;20406;-60
2023/02/16 06:35:08;;;;;;;17.00;10.88;;;;;;;;;;10024697;28;20088;-60
2023/02/16 06:40:03;;;;;;;19.77;11.57;;;;;;;;;;10035265;28;20502;-60
2023/02/16 06:44:56;;;;;;;15.50;11.07;;;;;;;;;;10027252;28;20076;-60
2023/02/16 06:49:49;;;;;;;29.15;13.60;;;;;;;;;;10007820;28;20137;-62
2023/02/16 06:54:43;;;;;;;19.08;10.93;;;;;;;;;;10027268;28;20489;-65
2023/02/16 06:59:36;;;;;;;21.00;11.55;;;;;;;;;;10026534;28;20133;-64
2023/02/16 07:04:29;;;;;;;18.35;12.05;;;;;;;;;;10023915;28;20104;-64
2023/02/16 07:09:23;;;;;;;25.73;12.32;;;;;;;;;;10026809;28;20058;-63
2023/02/16 07:14:16;;;;;;;14.65;10.32;;;;;;;;;;10026291;28;20053;-60
2023/02/16 07:19:10;;;;;;;20.08;11.23;;;;;;;;;;10025763;28;20384;-63
2023/02/16 07:24:03;;;;;;;19.50;11.15;;;;;;;;;;10026471;28;20060;-63
2023/02/16 07:28:57;;;;;;;16.95;11.13;;;;;;;;;;10024156;28;20180;-63
2023/02/16 07:33:51;;;;;;;33.35;17.92;;;;;;;;;;10023531;28;20042;-63
2023/02/16 07:38:44;;;;;;;42.60;22.75;;;;;;;;;;10022698;28;20076;-63
2023/02/16 07:43:38;;;;;;;28.77;16.05;;;;;;;;;;10024781;28;20096;-63
2023/02/16 07:48:30;;;;;;;31.85;15.48;;;;;;;;;;10024936;28;20050;-63
2023/02/16 07:53:24;;;;;;;28.67;16.42;;;;;;;;;;10025838;28;20042;-63
2023/02/16 07:58:26;;;;;;;33.70;16.85;;;;;;;;;;10022137;28;20046;-64
2023/02/16 08:03:19;;;;;;;29.88;17.70;;;;;;;;;;10022819;28;20050;-63
2023/02/16 08:08:13;;;;;;;29.85;17.60;;;;;;;;;;10022600;28;20046;-64
2023/02/16 08:13:07;;;;;;;30.88;17.95;;;;;;;;;;10021720;28;20049;-63
2023/02/16 08:18:01;;;;;;;32.40;19.00;;;;;;;;;;10020279;28;20505;-61
2023/02/16 08:22:55;;;;;;;30.85;17.88;;;;;;;;;;10021957;28;20042;-64
2023/02/16 08:27:49;;;;;;;34.28;20.52;;;;;;;;;;10022098;28;20053;-60
2023/02/16 08:32:45;;;;;;;40.63;22.10;;;;;;;;;;10021605;28;20125;-61
2023/02/16 08:37:38;;;;;;;36.42;21.40;;;;;;;;;;10021732;28;20126;-62
2023/02/16 08:42:32;;;;;;;35.55;20.23;;;;;;;;;;10014026;28;20128;-62
2023/02/16 08:47:24;;;;;;;38.50;20.98;;;;;;;;;;10024203;28;20076;-63
2023/02/16 08:52:19;;;;;;;31.50;22.38;;;;;;;;;;10022927;28;20545;-60
2023/02/16 08:57:13;;;;;;;39.55;23.25;;;;;;;;;;10023303;28;20084;-60
2023/02/16 09:02:06;;;;;;;33.67;22.30;;;;;;;;;;10030974;28;20053;-60
2023/02/16 09:07:00;;;;;;;36.80;22.70;;;;;;;;;;10030626;28;20046;-60
2023/02/16 09:11:56;;;;;;;41.85;24.38;;;;;;;;;;10031173;28;20053;-60
2023/02/16 09:16:49;;;;;;;46.08;27.17;;;;;;;;;;10031332;28;20046;-60
2023/02/16 09:21:44;;;;;;;38.95;25.05;;;;;;;;;;10029950;28;20156;-61
2023/02/16 09:26:40;;;;;;;46.85;27.15;;;;;;;;;;10019144;28;20081;-60
2023/02/16 09:31:35;;;;;;;39.78;27.13;;;;;;;;;;10014726;28;20097;-60
2023/02/16 09:36:29;;;;;;;44.00;28.70;;;;;;;;;;10017508;28;20410;-60
2023/02/16 09:41:39;;;;;;;42.85;28.63;;;;;;;;;;10027177;28;20057;-60
2023/02/16 09:46:33;;;;;;;40.65;28.15;;;;;;;;;;10030108;28;20049;-61
2023/02/16 09:51:32;;;;;;;49.92;29.15;;;;;;;;;;10027571;28;20112;-60
2023/02/16 09:56:31;;;;;;;45.58;29.95;;;;;;;;;;10028886;28;20490;-60
2023/02/16 10:01:27;;;;;;;41.10;28.23;;;;;;;;;;10019957;28;20124;-61
2023/02/16 10:06:44;;;;;;;38.25;30.48;;;;;;;;;;10020252;28;20045;-61
2023/02/16 10:11:45;;;;;;;48.53;33.22;;;;;;;;;;10026554;28;20511;-60
2023/02/16 10:17:06;;;;;;;44.30;32.75;;;;;;;;;;10016184;28;20052;-60
2023/02/16 10:22:02;;;;;;;49.70;36.63;;;;;;;;;;10019095;28;20518;-60
2023/02/16 10:27:07;;;;;;;51.65;35.90;;;;;;;;;;10024865;28;20059;-61
2023/02/16 10:32:12;;;;;;;46.95;33.47;;;;;;;;;;10023676;28;20414;-61
2023/02/16 10:37:16;;;;;;;47.60;35.65;;;;;;;;;;10018489;28;20042;-61
2023/02/16 10:42:12;;;;;;;45.63;35.05;;;;;;;;;;10024077;28;20480;-63
2023/02/16 10:47:15;;;;;;;53.47;38.22;;;;;;;;;;10023875;28;20050;-61
2023/02/16 10:52:08;;;;;;;55.53;36.92;;;;;;;;;;10021608;28;20353;-61
2023/02/16 10:57:23;;;;;;;58.67;38.88;;;;;;;;;;10020289;28;20061;-61
2023/02/16 11:02:19;;;;;;;66.80;43.42;;;;;;;;;;10022301;28;20057;-63
2023/02/16 11:07:25;;;;;;;61.42;43.25;;;;;;;;;;10025418;28;20056;-61
2023/02/16 11:12:44;;;;;;;60.05;38.92;;;;;;;;;;10026978;28;20506;-61
2023/02/16 11:17:49;;;;;;;66.10;46.90;;;;;;;;;;10026151;28;20065;-61
2023/02/16 11:22:42;;;;;;;72.72;48.83;;;;;;;;;;10025983;28;20054;-61
2023/02/16 11:27:36;;;;;;;73.47;48.85;;;;;;;;;;10011182;28;20050;-61
2023/02/16 11:32:33;;;;;;;82.97;53.50;;;;;;;;;;10011619;28;20081;-61
2023/02/16 11:37:32;;;;;;;85.22;54.65;;;;;;;;;;10013399;28;20045;-61
2023/02/16 11:42:27;;;;;;;75.97;52.40;;;;;;;;;;10002155;28;20576;-61
2023/02/16 11:47:25;;;;;;;81.05;53.28;;;;;;;;;;10007625;28;20073;-61
2023/02/16 11:52:29;;;;;;;72.03;48.08;;;;;;;;;;10017469;28;20058;-61
2023/02/16 11:57:27;;;;;;;73.88;46.75;;;;;;;;;;10019438;28;20054;-61
2023/02/16 12:02:33;;;;;;;65.50;43.53;;;;;;;;;;10024991;28;20042;-61
2023/02/16 12:08:01;;;;;;;62.28;42.10;;;;;;;;;;10013888;28;20081;-61
2023/02/16 12:13:01;;;;;;;58.60;39.97;;;;;;;;;;10016920;28;20061;-61
2023/02/16 12:18:13;;;;;;;70.40;43.63;;;;;;;;;;10016384;28;20411;-60
2023/02/16 12:23:16;;;;;;;64.35;41.13;;;;;;;;;;10021855;28;20507;-61
2023/02/16 12:28:11;;;;;;;59.65;41.65;;;;;;;;;;10024363;28;20392;-60
2023/02/16 12:33:07;;;;;;;65.68;43.65;;;;;;;;;;10026056;28;20042;-60
2023/02/16 12:38:07;;;;;;;63.55;42.10;;;;;;;;;;10028216;28;20056;-61
2023/02/16 12:43:09;;;;;;;65.70;43.47;;;;;;;;;;10031026;28;20054;-60
2023/02/16 12:48:36;;;;;;;65.32;44.13;;;;;;;;;;10029630;28;20568;-61
2023/02/16 12:53:37;;;;;;;73.22;44.65;;;;;;;;;;10029581;28;20052;-62
2023/02/16 12:58:44;;;;;;;76.47;46.33;;;;;;;;;;10028248;28;20565;-62
2023/02/16 13:03:51;;;;;;;74.30;45.80;;;;;;;;;;10019678;28;20042;-62
2023/02/16 13:08:52;;;;;;;77.85;46.72;;;;;;;;;;10025659;28;20080;-62
2023/02/16 13:13:47;;;;;;;77.60;46.28;;;;;;;;;;10016475;28;20074;-62
2023/02/16 13:18:41;;;;;;;81.38;50.03;;;;;;;;;;10009993;28;20083;-61
2023/02/16 13:23:49;;;;;;;69.45;46.67;;;;;;;;;;10029590;28;20125;-62
2023/02/16 13:28:54;;;;;;;84.50;51.97;;;;;;;;;;10015320;28;20048;-63
2023/02/16 13:33:59;;;;;;;69.55;46.25;;;;;;;;;;10026444;28;20058;-62
2023/02/16 13:39:15;;;;;;;72.00;49.13;;;;;;;;;;10021567;28;20081;-63
2023/02/16 13:44:09;;;;;;;81.32;48.40;;;;;;;;;;10026766;28;20045;-62
2023/02/16 13:49:02;;;;;;;80.75;49.13;;;;;;;;;;10021472;28;20399;-62
2023/02/16 13:54:01;;;;;;;68.47;48.00;;;;;;;;;;10024966;28;20041;-63
2023/02/16 13:58:56;;;;;;;74.80;48.70;;;;;;;;;;10028620;28;20136;-63
2023/02/16 14:03:50;;;;;;;76.03;48.78;;;;;;;;;;10026527;28;20057;-62
2023/02/16 14:09:12;;;;;;;79.63;46.72;;;;;;;;;;10014061;28;20452;-62
2023/02/16 14:14:24;;;;;;;71.32;45.28;;;;;;;;;;10018398;28;20050;-62
2023/02/16 14:19:26;;;;;;;72.75;46.83;;;;;;;;;;10007493;28;20565;-62
2023/02/16 14:24:29;;;;;;;77.72;50.67;;;;;;;;;;10015326;28;20076;-63
2023/02/16 14:29:44;;;;;;;82.07;50.85;;;;;;;;;;10026774;28;20057;-62
2023/02/16 14:35:07;;;;;;;71.22;49.08;;;;;;;;;;10025805;28;20066;-62
2023/02/16 14:40:39;;;;;;;75.30;48.33;;;;;;;;;;10026734;28;20534;-62
2023/02/16 14:45:49;;;;;;;74.78;48.72;;;;;;;;;;10019871;28;20554;-62
2023/02/16 14:50:45;;;;;;;74.05;48.80;;;;;;;;;;10018619;28;20054;-61
2023/02/16 14:55:52;;;;;;;83.50;51.28;;;;;;;;;;10025481;28;20049;-62
2023/02/16 15:01:15;;;;;;;78.60;50.20;;;;;;;;;;10017053;28;20653;-62
2023/02/16 15:06:16;;;;;;;78.93;51.00;;;;;;;;;;10019456;28;20525;-62
2023/02/16 15:11:12;;;;;;;87.97;53.15;;;;;;;;;;10013602;28;20046;-60
2023/02/16 15:16:12;;;;;;;85.57;52.42;;;;;;;;;;10009596;28;20049;-60
2023/02/16 15:21:05;;;;;;;89.05;57.92;;;;;;;;;;10010714;28;20050;-60
2023/02/16 15:26:24;;;;;;;86.32;56.58;;;;;;;;;;10019590;28;20050;-60
2023/02/16 15:31:20;;;;;;;88.40;53.15;;;;;;;;;;10010681;28;20054;-61
2023/02/16 15:36:17;;;;;;;88.93;53.88;;;;;;;;;;10019215;28;20121;-58
2023/02/16 15:41:14;;;;;;;79.60;53.78;;;;;;;;;;10010791;28;20085;-60
2023/02/16 15:46:14;;;;;;;85.35;56.47;;;;;;;;;;10019494;28;20104;-59
2023/02/16 15:51:15;;;;;;;81.28;52.70;;;;;;;;;;10021767;28;20089;-61
2023/02/16 15:56:16;;;;;;;84.95;54.15;;;;;;;;;;10019283;28;20053;-62
2023/02/16 16:01:09;;;;;;;85.30;53.50;;;;;;;;;;10009948;28;20056;-62
2023/02/16 16:06:04;;;;;;;87.68;53.33;;;;;;;;;;10021699;28;20509;-61
2023/02/16 16:10:59;;;;;;;79.65;53.30;;;;;;;;;;10029056;28;20100;-61
2023/02/16 16:15:58;;;;;;;78.78;54.47;;;;;;;;;;10029540;28;20422;-61
2023/02/16 16:21:01;;;;;;;84.60;55.97;;;;;;;;;;10030052;28;20132;-61
2023/02/16 16:25:56;;;;;;;91.80;58.88;;;;;;;;;;10029251;28;20045;-61
2023/02/16 16:31:14;;;;;;;95.10;60.47;;;;;;;;;;10028858;28;20130;-61
2023/02/16 16:36:18;;;;;;;85.15;55.05;;;;;;;;;;10018935;28;20062;-62
2023/02/16 16:41:26;;;;;;;83.30;55.80;;;;;;;;;;10027809;28;20111;-62
2023/02/16 16:46:24;;;;;;;86.85;58.45;;;;;;;;;;10030506;28;20074;-62
2023/02/16 16:51:42;;;;;;;87.88;57.00;;;;;;;;;;10016511;28;20054;-61
2023/02/16 16:56:37;;;;;;;92.30;56.22;;;;;;;;;;10020051;28;20732;-61
2023/02/16 17:01:31;;;;;;;92.88;59.30;;;;;;;;;;10028327;28;20052;-61
2023/02/16 17:06:24;;;;;;;90.82;57.40;;;;;;;;;;10018109;28;20081;-62
2023/02/16 17:11:17;;;;;;;92.43;59.45;;;;;;;;;;10026572;28;20411;-61
2023/02/16 17:16:16;;;;;;;92.07;60.53;;;;;;;;;;10028412;28;20057;-61
2023/02/16 17:21:12;;;;;;;95.90;62.80;;;;;;;;;;10014898;28;20046;-61
2023/02/16 17:26:06;;;;;;;94.88;62.60;;;;;;;;;;10005036;28;20042;-61
2023/02/16 17:30:59;;;;;;;94.22;64.53;;;;;;;;;;10020757;28;20065;-61
2023/02/16 17:35:54;;;;;;;98.63;65.25;;;;;;;;;;10011029;28;20081;-62
2023/02/16 17:40:48;;;;;;;110.40;62.38;;;;;;;;;;10009248;28;20057;-62
2023/02/16 17:45:42;;;;;;;100.03;67.05;;;;;;;;;;10000958;28;20081;-61
2023/02/16 17:50:36;;;;;;;91.10;60.70;;;;;;;;;;10010620;28;20463;-62
2023/02/16 17:55:33;;;;;;;99.70;60.83;;;;;;;;;;10004909;28;20078;-61
2023/02/16 18:00:29;;;;;;;;;;;;;;;;;;10008765;28;20050;-60
2023/02/16 18:05:24;;;;;;;92.95;62.47;;;;;;;;;;10006498;28;19960;-61
2023/02/16 18:10:33;;;;;;;93.70;61.95;;;;;;;;;;10009444;28;20045;-61
2023/02/16 18:15:27;;;;;;;93.15;60.67;;;;;;;;;;10015735;28;20053;-61
2023/02/16 18:20:21;;;;;;;95.53;60.85;;;;;;;;;;10007503;28;20103;-61
2023/02/16 18:25:14;;;;;;;106.05;64.65;;;;;;;;;;10028215;28;20054;-61
2023/02/16 18:30:09;;;;;;;102.50;64.80;;;;;;;;;;10027252;28;20108;-61
2023/02/16 18:35:03;;;;;;;102.60;64.72;;;;;;;;;;10026691;28;20046;-61
2023/02/16 18:39:57;;;;;;;98.88;66.50;;;;;;;;;;10012705;28;20131;-60
2023/02/16 18:44:51;;;;;;;97.10;63.75;;;;;;;;;;10008434;28;20041;-60
2023/02/16 18:49:45;;;;;;;98.07;65.88;;;;;;;;;;10010235;28;20466;-60
2023/02/16 18:54:42;;;;;;;102.97;67.10;;;;;;;;;;10011808;28;20097;-60
2023/02/16 18:59:35;;;;;;;104.25;67.55;;;;;;;;;;10002963;28;20467;-60
2023/02/16 19:04:28;;;;;;;125.55;83.43;;;;;;;;;;10010268;28;20129;-60
2023/02/16 19:09:22;;;;;;;129.35;77.78;;;;;;;;;;10013848;28;20046;-60
2023/02/16 19:14:17;;;;;;;119.75;80.93;;;;;;;;;;10009733;28;20052;-61
2023/02/16 19:19:10;;;;;;;115.28;75.10;;;;;;;;;;9997807;28;20057;-60
2023/02/16 19:24:04;;;;;;;116.43;73.38;;;;;;;;;;9997699;28;20046;-60
2023/02/16 19:28:58;;;;;;;122.55;70.43;;;;;;;;;;10015966;28;20050;-60
2023/02/16 19:33:51;;;;;;;103.65;72.85;;;;;;;;;;10009068;28;20043;-61
2023/02/16 19:38:44;;;;;;;102.65;71.88;;;;;;;;;;10007401;28;20050;-60
2023/02/16 19:43:39;;;;;;;104.30;72.03;;;;;;;;;;10008354;28;20092;-60
2023/02/16 19:48:32;;;;;;;112.63;74.45;;;;;;;;;;10002493;28;20097;-60
2023/02/16 19:53:26;;;;;;;112.82;73.93;;;;;;;;;;9999348;28;20050;-59
2023/02/16 19:58:22;;;;;;;118.30;74.55;;;;;;;;;;9999827;28;20145;-60
2023/02/16 20:03:18;;;;;;;107.07;68.97;;;;;;;;;;10001170;28;20107;-61
2023/02/16 20:08:13;;;;;;;103.40;68.20;;;;;;;;;;10014801;28;20399;-62
2023/02/16 20:13:07;;;;;;;113.40;72.38;;;;;;;;;;10006914;28;20062;-63
2023/02/16 20:18:01;;;;;;;112.22;73.75;;;;;;;;;;9994972;28;20049;-62
2023/02/16 20:22:55;;;;;;;118.22;77.13;;;;;;;;;;10002846;28;20058;-61
2023/02/16 20:27:49;;;;;;;104.90;73.97;;;;;;;;;;10000804;28;20053;-65
2023/02/16 20:32:43;;;;;;;107.20;72.82;;;;;;;;;;10005944;28;20100;-64
2023/02/16 20:37:39;;;;;;;105.22;72.28;;;;;;;;;;10003800;28;20058;-61
2023/02/16 20:42:32;;;;;;;127.47;79.13;;;;;;;;;;9997828;28;20050;-61
2023/02/16 20:47:25;;;;;;;124.47;80.32;;;;;;;;;;10002061;28;20084;-61
2023/02/16 20:52:19;;;;;;;116.40;79.40;;;;;;;;;;10007681;28;20050;-61
2023/02/16 20:57:13;;;;;;;115.32;76.40;;;;;;;;;;10011106;28;20069;-60
2023/02/16 21:02:18;;;;;;;112.63;74.10;;;;;;;;;;10014928;28;20515;-59
2023/02/16 21:07:11;;;;;;;109.10;76.20;;;;;;;;;;10009627;28;20738;-60
2023/02/16 21:12:04;;;;;;;105.80;71.80;;;;;;;;;;10016908;28;20054;-61
2023/02/16 21:16:58;;;;;;;98.20;68.78;;;;;;;;;;10018292;28;20518;-61
2023/02/16 21:21:53;;;;;;;98.28;68.88;;;;;;;;;;10015920;28;20136;-62
2023/02/16 21:26:47;;;;;;;103.03;65.97;;;;;;;;;;10004407;28;20038;-60
2023/02/16 21:31:40;;;;;;;102.78;70.07;;;;;;;;;;10006995;28;20046;-60
2023/02/16 21:36:36;;;;;;;117.72;71.47;;;;;;;;;;10000942;28;20041;-60
2023/02/16 21:41:29;;;;;;;109.22;70.07;;;;;;;;;;10011565;28;20065;-60
2023/02/16 21:46:23;;;;;;;111.45;72.57;;;;;;;;;;10018617;28;20049;-60
2023/02/16 21:51:38;;;;;;;114.90;72.53;;;;;;;;;;10021134;28;20054;-60
2023/02/16 21:56:37;;;;;;;108.10;72.65;;;;;;;;;;10015155;28;20049;-60
2023/02/16 22:01:37;;;;;;;114.20;74.65;;;;;;;;;;10013612;28;20049;-59
2023/02/16 22:06:34;;;;;;;110.93;73.93;;;;;;;;;;10009355;28;20049;-59
2023/02/16 22:11:28;;;;;;;112.50;74.60;;;;;;;;;;10017620;28;20132;-60
2023/02/16 22:16:22;;;;;;;119.22;75.10;;;;;;;;;;10003490;28;20078;-60
2023/02/16 22:21:16;;;;;;;104.97;71.68;;;;;;;;;;10016419;28;20064;-60
2023/02/16 22:26:21;;;;;;;106.75;69.43;;;;;;;;;;10018107;28;20161;-61
2023/02/16 22:31:13;;;;;;;104.07;66.68;;;;;;;;;;10021979;28;20088;-60
2023/02/16 22:36:12;;;;;;;108.05;67.10;;;;;;;;;;10008953;28;20514;-60
2023/02/16 22:41:07;;;;;;;96.07;62.85;;;;;;;;;;10010026;28;20471;-60
2023/02/16 22:46:08;;;;;;;98.45;64.22;;;;;;;;;;10014479;28;20602;-59
2023/02/16 22:51:04;;;;;;;99.88;65.88;;;;;;;;;;10003665;28;20062;-60
2023/02/16 22:55:58;;;;;;;99.45;60.28;;;;;;;;;;10007387;28;20042;-60
2023/02/16 23:00:52;;;;;;;99.47;66.57;;;;;;;;;;10011859;28;20082;-60
2023/02/16 23:05:46;;;;;;;98.55;63.53;;;;;;;;;;10010497;28;20053;-60
2023/02/16 23:10:40;;;;;;;96.63;61.03;;;;;;;;;;10019894;28;20048;-60
2023/02/16 23:15:34;;;;;;;101.75;66.90;;;;;;;;;;10025745;28;20054;-60
2023/02/16 23:20:29;;;;;;;106.57;70.45;;;;;;;;;;10025547;28;20142;-60
2023/02/16 23:25:34;;;;;;;106.40;67.85;;;;;;;;;;10026458;28;20046;-60
2023/02/16 23:30:26;;;;;;;102.68;65.22;;;;;;;;;;10026250;28;20128;-60
2023/02/16 23:35:21;;;;;;;100.85;62.58;;;;;;;;;;10041871;28;20060;-60
2023/02/16 23:40:13;;;;;;;91.93;58.60;;;;;;;;;;10033548;28;20066;-61
2023/02/16 23:45:08;;;;;;;85.10;56.88;;;;;;;;;;10007322;28;20507;-60
2023/02/16 23:50:00;;;;;;;93.45;58.13;;;;;;;;;;10017255;28;20053;-60
2023/02/16 23:54:54;;;;;;;90.18;57.15;;;;;;;;;;10026112;28;20115;-60
2023/02/16 23:59:47;;;;;;;99.85;61.25;;;;;;;;;;10024876;28;20462;-60
